createdAt,value
2023-03-12T00:01:34.580Z,97609.89
2023-03-12T00:04:02.839Z,97610.41
2023-03-12T00:06:31.328Z,97607.34
2023-03-12T00:09:02.313Z,97609.24
2023-03-12T00:11:31.456Z,97614.17
2023-03-12T00:14:02.182Z,97618.05
2023-03-12T00:16:30.465Z,97617.23
2023-03-12T00:18:58.458Z,97621.80
2023-03-12T00:21:26.662Z,97623.45
2023-03-12T00:23:54.638Z,97627.61
2023-03-12T00:26:22.736Z,97626.05
2023-03-12T00:38:14.113Z,97617.29
2023-03-12T00:40:42.140Z,97615.95
2023-03-12T00:43:10.110Z,97614.27
2023-03-12T00:45:38.108Z,97616.09
2023-03-12T00:48:06.697Z,97614.95
2023-03-12T00:50:34.879Z,97618.55
2023-03-12T00:53:02.904Z,97623.02
2023-03-12T00:55:30.858Z,97627.57
2023-03-12T00:57:58.886Z,97629.99
2023-03-12T01:00:27.430Z,97632.77
2023-03-12T01:02:55.684Z,97633.42
2023-03-12T01:05:25.441Z,97636.67
2023-03-12T01:07:54.798Z,97638.00
2023-03-12T01:10:23.267Z,97639.01
2023-03-12T01:12:51.820Z,97639.39
2023-03-12T01:15:19.860Z,97644.95
2023-03-12T01:17:48.009Z,97650.56
2023-03-12T01:20:16.458Z,97655.31
2023-03-12T01:22:44.816Z,97656.74
2023-03-12T01:25:13.088Z,97659.59
2023-03-12T01:27:41.186Z,97665.61
2023-03-12T01:30:10.370Z,97666.83
2023-03-12T01:32:39.532Z,97667.32
2023-03-12T01:35:08.500Z,97668.27
2023-03-12T01:37:36.672Z,97668.33
2023-03-12T01:40:05.162Z,97673.50
2023-03-12T01:42:33.900Z,97676.54
2023-03-12T01:45:03.095Z,97676.58
2023-03-12T01:47:32.730Z,97679.36
2023-03-12T01:50:03.557Z,97683.89
2023-03-12T01:52:34.348Z,97684.05
2023-03-12T01:55:03.940Z,97686.40
2023-03-12T01:57:52.720Z,97686.51
2023-03-12T02:00:24.148Z,97682.97
2023-03-12T02:02:56.358Z,97686.62
2023-03-12T02:05:34.301Z,97693.20
2023-03-12T02:08:02.627Z,97695.70
2023-03-12T02:10:32.244Z,97701.55
2023-03-12T02:13:00.523Z,97711.48
2023-03-12T02:15:29.095Z,97714.36
2023-03-12T02:17:57.924Z,97721.88
2023-03-12T02:20:57.012Z,97724.88
2023-03-12T02:23:43.729Z,97733.98
2023-03-12T02:26:12.762Z,97738.88
2023-03-12T02:28:44.286Z,97746.23
2023-03-12T02:31:18.461Z,97746.38
2023-03-12T02:33:46.740Z,97744.17
2023-03-12T02:40:45.337Z,97759.67
2023-03-12T02:43:13.831Z,97759.98
2023-03-12T02:45:43.908Z,97758.77
2023-03-12T02:48:12.323Z,97756.05
2023-03-12T02:50:43.266Z,97765.59
2023-03-12T02:53:11.470Z,97763.85
2023-03-12T02:55:43.652Z,97765.77
2023-03-12T02:58:12.211Z,97767.39
2023-03-12T03:00:40.421Z,97775.70
2023-03-12T03:03:08.800Z,97773.52
2023-03-12T03:05:37.347Z,97782.13
2023-03-12T03:08:10.621Z,97786.71
2023-03-12T03:10:38.674Z,97787.70
2023-03-12T03:13:07.975Z,97794.24
2023-03-12T03:15:36.815Z,97804.05
2023-03-12T03:18:07.136Z,97809.66
2023-03-12T03:20:36.001Z,97812.00
2023-03-12T03:23:04.633Z,97820.91
2023-03-12T03:25:34.253Z,97826.17
2023-03-12T03:28:04.343Z,97823.29
2023-03-12T03:30:33.548Z,97828.40
2023-03-12T03:33:02.296Z,97826.13
2023-03-12T03:35:34.491Z,97824.52
2023-03-12T03:38:02.811Z,97830.16
2023-03-12T03:40:30.911Z,97831.33
2023-03-12T03:42:59.947Z,97834.94
2023-03-12T03:45:28.208Z,97840.17
2023-03-12T03:47:56.304Z,97841.95
2023-03-12T03:50:24.454Z,97842.01
2023-03-12T03:52:55.156Z,97846.52
2023-03-12T03:55:24.505Z,97858.65
2023-03-12T03:57:52.528Z,97870.17
2023-03-12T04:00:22.032Z,97874.84
2023-03-12T04:02:51.029Z,97877.23
2023-03-12T04:05:20.895Z,97877.51
2023-03-12T04:07:53.107Z,97887.18
2023-03-12T04:10:23.644Z,97895.00
2023-03-12T04:12:52.906Z,97899.78
2023-03-12T04:15:23.513Z,97906.36
2023-03-12T04:17:52.248Z,97907.82
2023-03-12T04:20:21.041Z,97917.52
2023-03-12T04:22:50.139Z,97917.38
2023-03-12T04:25:19.103Z,97932.13
2023-03-12T04:27:47.598Z,97944.14
2023-03-12T04:30:16.155Z,97947.40
2023-03-12T04:32:45.701Z,97964.73
2023-03-12T04:35:19.912Z,97975.61
2023-03-12T04:37:48.584Z,97979.34
2023-03-12T04:40:19.098Z,97985.81
2023-03-12T04:42:48.009Z,97990.25
2023-03-12T04:45:16.869Z,97992.45
2023-03-12T04:47:51.149Z,97999.34
2023-03-12T04:50:19.460Z,98005.08
2023-03-12T04:52:47.865Z,98013.77
2023-03-12T04:55:16.370Z,98018.19
2023-03-12T04:57:44.394Z,98031.39
2023-03-12T05:00:13.753Z,98030.90
2023-03-12T05:02:43.318Z,98026.31
2023-03-12T05:05:11.835Z,98035.91
2023-03-12T05:08:00.793Z,98036.35
2023-03-12T05:10:31.608Z,98033.35
2023-03-12T05:13:00.884Z,98035.29
2023-03-12T05:15:29.218Z,98054.53
2023-03-12T05:17:58.917Z,98057.17
2023-03-12T05:20:27.062Z,98062.39
2023-03-12T05:22:55.465Z,98074.48
2023-03-12T05:25:26.338Z,98083.09
2023-03-12T05:27:56.208Z,98086.38
2023-03-12T05:30:25.826Z,98088.55
2023-03-12T05:32:54.063Z,98098.26
2023-03-12T05:35:22.205Z,98107.19
2023-03-12T05:37:54.469Z,98114.34
2023-03-12T05:40:23.126Z,98116.13
2023-03-12T05:42:51.804Z,98115.02
2023-03-12T05:45:20.054Z,98127.80
2023-03-12T05:47:49.719Z,98142.84
2023-03-12T05:50:19.368Z,98155.45
2023-03-12T05:52:48.191Z,98167.20
2023-03-12T05:55:17.808Z,98170.58
2023-03-12T05:57:47.608Z,98180.94
2023-03-12T06:00:16.806Z,98187.20
2023-03-12T06:02:50.725Z,98196.52
2023-03-12T06:05:19.094Z,98206.95
2023-03-12T06:07:52.338Z,98212.64
2023-03-12T06:10:20.931Z,98216.17
2023-03-12T06:12:48.982Z,98227.73
2023-03-12T06:15:20.179Z,98242.16
2023-03-12T06:17:50.330Z,98245.16
2023-03-12T06:20:19.190Z,98254.15
2023-03-12T06:22:47.291Z,98254.96
2023-03-12T06:25:16.085Z,98265.61
2023-03-12T06:27:44.568Z,98274.23
2023-03-12T06:30:13.522Z,98286.84
2023-03-12T06:32:41.609Z,98292.67
2023-03-12T06:35:10.127Z,98290.45
2023-03-12T06:37:38.172Z,98297.55
2023-03-12T06:40:10.114Z,98297.48
2023-03-12T06:42:40.367Z,98308.74
2023-03-12T06:45:09.053Z,98307.23
2023-03-12T06:47:37.894Z,98321.31
2023-03-12T06:50:06.263Z,98328.04
2023-03-12T06:52:37.793Z,98339.42
2023-03-12T06:55:06.545Z,98349.83
2023-03-12T06:57:34.660Z,98354.23
2023-03-12T07:00:04.907Z,98360.70
2023-03-12T07:02:33.610Z,98370.42
2023-03-12T07:05:06.988Z,98376.80
2023-03-12T07:07:35.525Z,98393.39
2023-03-12T07:10:06.607Z,98397.16
2023-03-12T07:12:35.002Z,98398.73
2023-03-12T07:15:03.217Z,98407.39
2023-03-12T07:17:31.877Z,98417.54
2023-03-12T07:20:00.134Z,98420.55
2023-03-12T07:22:28.388Z,98429.05
2023-03-12T07:24:56.601Z,98431.81
2023-03-12T07:27:24.862Z,98454.27
2023-03-12T07:29:52.899Z,98471.87
2023-03-12T07:32:21.068Z,98477.17
2023-03-12T07:34:49.217Z,98472.46
2023-03-12T07:37:20.238Z,98472.81
2023-03-12T07:39:52.469Z,98481.06
2023-03-12T07:42:23.794Z,98489.57
2023-03-12T07:44:51.992Z,98505.00
2023-03-12T07:47:24.206Z,98515.67
2023-03-12T07:49:54.248Z,98526.72
2023-03-12T07:52:23.733Z,98525.82
2023-03-12T07:54:53.010Z,98529.96
2023-03-12T07:57:21.650Z,98537.20
2023-03-12T07:59:50.078Z,98549.43
2023-03-12T08:02:18.739Z,98557.32
2023-03-12T08:04:47.109Z,98561.91
2023-03-12T08:07:15.344Z,98569.80
2023-03-12T08:09:44.250Z,98567.40
2023-03-12T08:12:15.805Z,98563.82
2023-03-12T08:14:44.070Z,98570.85
2023-03-12T08:17:13.022Z,98578.45
2023-03-12T08:19:42.598Z,98585.48
2023-03-12T08:22:10.842Z,98588.65
2023-03-12T08:24:38.824Z,98606.38
2023-03-12T08:27:08.172Z,98619.05
2023-03-12T08:29:36.461Z,98626.90
2023-03-12T08:32:05.855Z,98636.44
2023-03-12T08:34:36.929Z,98648.36
2023-03-12T08:37:05.965Z,98653.67
2023-03-12T08:39:34.297Z,98658.34
2023-03-12T08:42:02.468Z,98663.42
2023-03-12T08:44:30.759Z,98678.07
2023-03-12T08:46:58.889Z,98686.44
2023-03-12T08:49:27.039Z,98694.21
2023-03-12T08:51:55.342Z,98703.35
2023-03-12T08:54:23.407Z,98711.34
2023-03-12T08:56:52.729Z,98721.07
2023-03-12T08:59:23.493Z,98726.97
2023-03-12T09:01:51.886Z,98731.02
2023-03-12T09:04:20.068Z,98736.45
2023-03-12T09:06:48.493Z,98746.42
2023-03-12T09:09:16.550Z,98750.95
2023-03-12T09:11:47.429Z,98762.12
2023-03-12T09:17:09.235Z,98786.27
2023-03-12T09:19:37.405Z,98790.33
2023-03-12T09:22:05.580Z,98792.81
2023-03-12T09:24:35.404Z,98791.73
2023-03-12T09:27:04.600Z,98802.84
2023-03-12T09:29:34.868Z,98804.42
2023-03-12T09:32:05.807Z,98817.98
2023-03-12T09:34:35.057Z,98816.73
2023-03-12T09:37:03.082Z,98825.05
2023-03-12T09:39:32.210Z,98823.55
2023-03-12T09:42:00.259Z,98845.33
2023-03-12T09:44:41.452Z,98854.92
2023-03-12T09:47:26.231Z,98865.05
2023-03-12T09:49:57.200Z,98862.23
2023-03-12T09:52:43.668Z,98870.07
2023-03-12T09:55:16.901Z,98872.72
2023-03-12T09:57:45.033Z,98876.94
2023-03-12T10:00:17.246Z,98890.73
2023-03-12T10:03:10.320Z,98896.88
2023-03-12T10:06:24.685Z,98909.59
2023-03-12T10:08:56.676Z,98921.06
2023-03-12T10:11:32.332Z,98930.98
2023-03-12T10:14:05.038Z,98937.85
2023-03-12T10:16:43.489Z,98938.55
2023-03-12T10:19:29.514Z,98947.75
2023-03-12T10:22:00.665Z,98953.53
2023-03-12T10:24:55.593Z,98964.09
2023-03-12T10:27:25.888Z,98961.23
2023-03-12T10:29:54.554Z,98962.42
2023-03-12T10:32:37.628Z,98964.34
2023-03-12T10:35:17.248Z,98965.92
2023-03-12T10:38:04.996Z,98972.64
2023-03-12T10:40:34.645Z,98965.95
2023-03-12T10:43:04.602Z,98971.16
2023-03-12T10:45:36.597Z,98978.45
2023-03-12T10:48:11.908Z,98982.46
2023-03-12T10:50:42.407Z,98990.71
2023-03-12T10:53:13.466Z,98990.86
2023-03-12T10:55:42.430Z,99003.42
2023-03-12T10:58:22.854Z,99004.58
2023-03-12T11:00:58.270Z,99005.77
2023-03-12T11:03:26.329Z,99010.30
2023-03-12T11:05:55.777Z,99004.70
2023-03-12T11:08:31.092Z,99010.10
2023-03-12T11:11:00.240Z,99021.66
2023-03-12T11:13:38.093Z,99022.77
2023-03-12T11:16:16.161Z,99026.00
2023-03-12T11:19:05.220Z,99030.09
2023-03-12T11:21:40.333Z,99042.45
2023-03-12T11:24:10.986Z,99036.09
2023-03-12T11:26:52.169Z,99031.28
2023-03-12T11:29:40.229Z,99046.29
2023-03-12T11:32:35.495Z,99052.00
2023-03-12T11:35:12.450Z,99052.52
2023-03-12T11:37:56.740Z,99062.63
2023-03-12T11:40:28.016Z,99068.23
2023-03-12T11:43:05.163Z,99079.23
2023-03-12T11:45:43.889Z,99085.06
2023-03-12T11:48:33.954Z,99092.71
2023-03-12T11:51:08.531Z,99098.17
2023-03-12T11:53:37.303Z,99100.98
2023-03-12T11:56:12.456Z,99102.70
2023-03-12T11:59:16.186Z,99102.66
2023-03-12T12:01:50.316Z,99112.75
2023-03-12T12:04:50.787Z,99119.13
2023-03-12T12:07:23.181Z,99125.33
2023-03-12T12:10:01.694Z,99137.48
2023-03-12T12:12:36.396Z,99140.38
2023-03-12T12:15:25.815Z,99140.80
2023-03-12T12:18:06.244Z,99143.90
2023-03-12T12:20:39.974Z,99140.70
2023-03-12T12:23:20.428Z,99144.95
2023-03-12T12:26:01.192Z,99144.40
2023-03-12T12:29:00.301Z,99147.66
2023-03-12T12:31:51.748Z,99146.93
2023-03-12T12:34:59.001Z,99141.22
2023-03-12T12:37:42.874Z,99153.46
2023-03-12T12:40:21.376Z,99154.86
2023-03-12T12:43:35.999Z,99158.96
2023-03-12T12:46:09.775Z,99167.89
2023-03-12T12:49:05.239Z,99172.05
2023-03-12T12:51:40.518Z,99185.59
2023-03-12T12:54:16.850Z,99191.50
2023-03-12T12:56:51.127Z,99193.51
2023-03-12T12:59:28.036Z,99201.51
2023-03-12T13:01:56.293Z,99204.36
2023-03-12T13:04:33.047Z,99214.93
2023-03-12T13:07:12.316Z,99221.67
2023-03-12T13:09:41.740Z,99220.30
2023-03-12T13:12:19.437Z,99231.02
2023-03-12T13:14:48.754Z,99234.24
2023-03-12T13:17:36.429Z,99232.66
2023-03-12T13:20:11.144Z,99243.06
2023-03-12T13:23:01.392Z,99244.25
2023-03-12T13:25:40.012Z,99250.21
2023-03-12T13:28:32.618Z,99261.77
2023-03-12T13:31:24.318Z,99256.35
2023-03-12T13:33:53.616Z,99261.61
2023-03-12T13:36:29.140Z,99263.52
2023-03-12T13:39:08.076Z,99263.83
2023-03-12T13:41:41.132Z,99268.72
2023-03-12T13:44:28.065Z,99269.52
2023-03-12T13:46:59.792Z,99270.96
2023-03-12T13:50:14.216Z,99272.88
2023-03-12T13:52:51.870Z,99283.00
2023-03-12T13:55:25.269Z,99280.27
2023-03-12T13:58:02.138Z,99283.73
2023-03-12T14:00:38.499Z,99283.65
2023-03-12T14:03:12.565Z,99286.35
2023-03-12T14:06:04.535Z,99286.56
2023-03-12T14:08:49.135Z,99288.44
2023-03-12T14:11:21.222Z,99290.88
2023-03-12T14:14:15.449Z,99296.11
2023-03-12T14:16:46.258Z,99300.06
2023-03-12T14:19:14.623Z,99306.72
2023-03-12T14:21:46.547Z,99305.48
2023-03-12T14:24:19.428Z,99310.72
2023-03-12T14:26:47.421Z,99308.77
2023-03-12T14:29:38.158Z,99312.27
2023-03-12T14:32:11.469Z,99315.90
2023-03-12T14:34:45.486Z,99324.56
2023-03-12T14:37:19.035Z,99326.03
2023-03-12T14:39:55.683Z,99329.75
2023-03-12T14:43:14.454Z,99333.71
2023-03-12T14:45:44.632Z,99330.16
2023-03-12T14:48:13.011Z,99338.12
2023-03-12T14:50:41.602Z,99344.01
2023-03-12T14:53:24.726Z,99350.29
2023-03-12T14:56:25.866Z,99356.89
2023-03-12T14:58:54.141Z,99348.36
2023-03-12T15:01:33.350Z,99351.84
2023-03-12T15:04:03.914Z,99354.77
2023-03-12T15:06:36.656Z,99361.14
2023-03-12T15:09:06.993Z,99362.66
2023-03-12T15:11:38.784Z,99368.37
2023-03-12T15:14:08.302Z,99372.77
2023-03-12T15:16:38.418Z,99380.95
2023-03-12T15:19:06.494Z,99385.74
2023-03-12T15:21:35.036Z,99390.95
2023-03-12T15:24:04.036Z,99392.63
2023-03-12T15:26:35.674Z,99401.98
2023-03-12T15:29:16.517Z,99408.02
2023-03-12T15:31:48.934Z,99407.23
2023-03-12T15:34:34.343Z,99412.33
2023-03-12T15:37:23.889Z,99421.48
2023-03-12T15:39:52.292Z,99429.20
2023-03-12T15:42:23.693Z,99431.98
2023-03-12T15:44:56.989Z,99438.80
2023-03-12T15:47:29.031Z,99443.02
2023-03-12T15:50:11.296Z,99445.98
2023-03-12T15:52:39.454Z,99449.02
2023-03-12T15:55:22.689Z,99454.17
2023-03-12T15:57:52.167Z,99458.39
2023-03-12T16:00:28.336Z,99463.50
2023-03-12T16:03:01.014Z,99464.60
2023-03-12T16:05:35.617Z,99474.17
2023-03-12T16:08:23.551Z,99481.23
2023-03-12T16:10:51.741Z,99483.93
2023-03-12T16:13:20.924Z,99486.08
2023-03-12T16:15:52.412Z,99492.09
2023-03-12T16:18:22.033Z,99494.19
2023-03-12T16:20:51.403Z,99502.05
2023-03-12T16:23:21.640Z,99506.16
2023-03-12T16:25:51.764Z,99507.77
2023-03-12T16:28:20.354Z,99509.59
2023-03-12T16:30:50.054Z,99516.70
2023-03-12T16:33:19.873Z,99522.80
2023-03-12T16:35:48.166Z,99521.95
2023-03-12T16:38:16.629Z,99525.04
2023-03-12T16:40:49.071Z,99534.73
2023-03-12T16:52:39.757Z,99584.15
2023-03-12T16:55:08.237Z,99588.54
2023-03-12T16:57:37.620Z,99591.64
2023-03-12T17:00:08.600Z,99590.89
2023-03-12T17:02:36.914Z,99593.36
2023-03-12T17:05:05.137Z,99600.98
2023-03-12T17:07:33.328Z,99600.65
2023-03-12T17:10:02.011Z,99604.91
2023-03-12T17:12:36.414Z,99609.91
2023-03-12T17:15:08.378Z,99609.11
2023-03-12T17:17:37.599Z,99609.70
2023-03-12T17:20:10.059Z,99618.86
2023-03-12T17:22:38.285Z,99626.24
2023-03-12T17:25:30.248Z,99633.62
2023-03-12T17:27:59.670Z,99642.77
2023-03-12T17:30:30.106Z,99644.48
2023-03-12T17:33:02.918Z,99642.29
2023-03-12T17:35:31.179Z,99649.38
2023-03-12T17:37:59.571Z,99650.83
2023-03-12T17:40:28.201Z,99654.21
2023-03-12T17:43:02.572Z,99660.90
2023-03-12T17:45:30.700Z,99662.98
2023-03-12T17:47:58.764Z,99669.09
2023-03-12T17:50:26.872Z,99671.08
2023-03-12T17:52:55.119Z,99676.38
2023-03-12T17:55:23.164Z,99680.13
2023-03-12T17:57:51.358Z,99683.51
2023-03-12T18:00:23.105Z,99683.52
2023-03-12T18:02:53.055Z,99686.52
2023-03-12T18:05:21.438Z,99692.19
2023-03-12T18:07:52.291Z,99696.02
2023-03-12T18:10:20.547Z,99702.09
2023-03-12T18:12:50.919Z,99706.75
2023-03-12T18:15:19.813Z,99708.11
2023-03-12T18:17:51.960Z,99707.70
2023-03-12T18:20:37.463Z,99707.17
2023-03-12T18:23:06.856Z,99719.93
2023-03-12T18:25:34.838Z,99717.92
2023-03-12T18:28:03.301Z,99720.98
2023-03-12T18:30:31.620Z,99725.65
2023-03-12T18:33:03.066Z,99727.56
2023-03-12T18:35:31.690Z,99727.48
2023-03-12T18:37:59.786Z,99734.80
2023-03-12T18:40:29.138Z,99735.77
2023-03-12T18:42:58.024Z,99739.00
2023-03-12T18:45:27.112Z,99737.78
2023-03-12T18:47:55.996Z,99746.02
2023-03-12T18:50:25.022Z,99750.23
2023-03-12T18:52:53.531Z,99750.55
2023-03-12T18:55:21.538Z,99756.03
2023-03-12T18:57:50.355Z,99761.02
2023-03-12T19:00:19.250Z,99768.27
2023-03-12T19:02:48.030Z,99774.29
2023-03-12T19:05:16.660Z,99775.59
2023-03-12T19:07:44.755Z,99784.64
2023-03-12T19:10:13.027Z,99794.80
2023-03-12T19:12:52.152Z,99801.34
2023-03-12T19:15:22.170Z,99805.55
2023-03-12T19:17:51.290Z,99812.98
2023-03-12T19:20:19.855Z,99813.59
2023-03-12T19:22:50.029Z,99822.41
2023-03-12T19:25:18.781Z,99828.59
2023-03-12T19:27:50.298Z,99829.18
2023-03-12T19:30:19.026Z,99836.97
2023-03-12T19:32:47.135Z,99842.30
2023-03-12T19:35:15.341Z,99845.60
2023-03-12T19:37:44.564Z,99859.83
2023-03-12T19:40:13.429Z,99865.23
2023-03-12T19:42:42.608Z,99867.77
2023-03-12T19:45:11.232Z,99870.73
2023-03-12T19:47:41.044Z,99876.29
2023-03-12T19:50:10.146Z,99879.09
2023-03-12T19:52:38.810Z,99886.12
2023-03-12T19:55:09.763Z,99881.79
2023-03-12T19:57:37.978Z,99891.23
2023-03-12T20:00:09.932Z,99893.75
2023-03-12T20:02:38.871Z,99898.36
2023-03-12T20:05:07.490Z,99902.16
2023-03-12T20:07:36.045Z,99903.59
2023-03-12T20:10:10.015Z,99909.38
2023-03-12T20:12:39.453Z,99908.80
2023-03-12T20:15:08.849Z,99920.95
2023-03-12T20:17:38.012Z,99923.06
2023-03-12T20:20:08.079Z,99930.59
2023-03-12T20:22:36.672Z,99928.99
2023-03-12T20:25:06.824Z,99928.23
2023-03-12T20:27:35.790Z,99937.04
2023-03-12T20:30:04.668Z,99934.38
2023-03-12T20:32:33.456Z,99940.30
2023-03-12T20:35:01.547Z,99944.17
2023-03-12T20:37:31.168Z,99946.58
2023-03-12T20:39:59.523Z,99952.88
2023-03-12T20:42:27.823Z,99951.26
2023-03-12T20:44:57.062Z,99957.78
2023-03-12T20:47:25.267Z,99961.89
2023-03-12T20:49:53.469Z,99965.33
2023-03-12T20:52:21.719Z,99969.08
2023-03-12T20:54:51.169Z,99972.66
2023-03-12T20:57:19.141Z,99977.42
2023-03-12T20:59:47.249Z,99982.68
2023-03-12T21:02:15.496Z,99978.88
2023-03-12T21:04:43.903Z,99984.31
2023-03-12T21:07:12.304Z,99989.36
2023-03-12T21:09:43.194Z,99998.09
2023-03-12T21:12:11.382Z,99999.00
2023-03-12T21:14:41.666Z,100006.40
2023-03-12T21:17:13.817Z,100009.63
2023-03-12T21:19:46.511Z,100016.52
2023-03-12T21:22:15.040Z,100021.05
2023-03-12T21:24:42.997Z,100026.98
2023-03-12T21:27:13.100Z,100026.48
2023-03-12T21:29:42.726Z,100035.02
2023-03-12T21:32:10.753Z,100040.02
2023-03-12T21:34:39.115Z,100039.13
2023-03-12T21:37:07.165Z,100044.09
2023-03-12T21:39:36.258Z,100049.91
2023-03-12T21:42:04.587Z,100052.23
2023-03-12T21:44:36.516Z,100051.48
2023-03-12T21:47:05.213Z,100053.41
2023-03-12T21:49:34.797Z,100056.95
2023-03-12T21:52:03.593Z,100056.77
2023-03-12T21:54:35.159Z,100064.76
2023-03-12T21:57:03.831Z,100072.00
2023-03-12T21:59:33.050Z,100073.98
2023-03-12T22:02:01.456Z,100074.80
2023-03-12T22:04:29.837Z,100077.71
2023-03-12T22:06:58.166Z,100076.61
2023-03-12T22:09:27.111Z,100082.57
2023-03-12T22:11:55.740Z,100083.83
2023-03-12T22:14:24.161Z,100083.88
2023-03-12T22:16:54.786Z,100082.88
2023-03-12T22:19:24.056Z,100088.92
2023-03-12T22:21:52.158Z,100092.02
2023-03-12T22:24:22.036Z,100096.58
2023-03-12T22:26:50.032Z,100101.04
2023-03-12T22:29:18.008Z,100107.13
2023-03-12T22:31:46.154Z,100109.73
2023-03-12T22:34:14.950Z,100109.64
2023-03-12T22:36:43.593Z,100116.50
2023-03-12T22:39:11.815Z,100119.48
2023-03-12T22:41:41.233Z,100122.36
2023-03-12T22:44:09.514Z,100129.34
2023-03-12T22:46:43.095Z,100132.96
2023-03-12T22:49:11.306Z,100138.20
2023-03-12T22:51:39.393Z,100139.95
2023-03-12T22:54:07.429Z,100143.62
2023-03-12T22:56:35.997Z,100141.73
2023-03-12T22:59:04.916Z,100144.88
2023-03-12T23:01:33.773Z,100143.67
2023-03-12T23:04:06.462Z,100148.95
2023-03-12T23:06:34.654Z,100157.44
2023-03-12T23:09:03.181Z,100166.43
2023-03-12T23:11:36.023Z,100166.01
2023-03-12T23:14:04.321Z,100169.16
2023-03-12T23:16:32.495Z,100172.34
2023-03-12T23:19:00.900Z,100179.13
2023-03-12T23:21:29.995Z,100180.86
2023-03-12T23:24:02.335Z,100188.08
2023-03-12T23:26:30.485Z,100192.01
2023-03-12T23:28:59.281Z,100194.33
2023-03-12T23:31:29.174Z,100199.45
2023-03-12T23:33:59.242Z,100195.77
2023-03-12T23:36:32.021Z,100200.65
2023-03-12T23:39:00.452Z,100205.19
2023-03-12T23:41:31.844Z,100215.40
2023-03-12T23:44:01.600Z,100221.98
2023-03-12T23:46:30.390Z,100225.18
2023-03-12T23:48:59.972Z,100225.71
2023-03-12T23:51:31.356Z,100216.83
2023-03-12T23:54:03.821Z,100214.03
2023-03-12T23:56:38.116Z,100215.35
2023-03-12T23:59:07.145Z,100216.91
